sensor_id;sensor_type;location;lat;lon;timestamp;temperature;humidity
65995;HTU21D;52764;51.036;5.852;2023-11-19T19:03:08;12.21;91.92
65995;HTU21D;52764;51.036;5.852;2023-11-19T19:05:38;12.33;92.37
65995;HTU21D;52764;51.036;5.852;2023-11-19T19:08:05;12.47;91.79
65995;HTU21D;52764;51.036;5.852;2023-11-19T19:10:31;12.58;91.02
65995;HTU21D;52764;51.036;5.852;2023-11-19T19:12:56;11.82;90.09
65995;HTU21D;52764;51.036;5.852;2023-11-19T19:15:22;12.79;89.12
65995;HTU21D;52764;51.036;5.852;2023-11-19T19:17:51;12.89;88.35
65995;HTU21D;52764;51.036;5.852;2023-11-19T19:20:16;12.91;87.93
65995;HTU21D;52764;51.036;5.852;2023-11-19T19:22:42;12.93;86.89
65995;HTU21D;52764;51.036;5.852;2023-11-19T19:25:08;12.96;87.29
65995;HTU21D;52764;51.036;5.852;2023-11-19T19:27:34;13.01;86.98
65995;HTU21D;52764;51.036;5.852;2023-11-19T19:29:59;13.02;86.82
65995;HTU21D;52764;51.036;5.852;2023-11-19T19:32:25;13.03;86.68
65995;HTU21D;52764;51.036;5.852;2023-11-19T19:34:51;13.05;86.46
65995;HTU21D;52764;51.036;5.852;2023-11-19T19:37:17;13.16;85.96
65995;HTU21D;52764;51.036;5.852;2023-11-19T19:39:43;13.21;85.43
65995;HTU21D;52764;51.036;5.852;2023-11-19T19:42:08;13.26;84.97
65995;HTU21D;52764;51.036;5.852;2023-11-19T19:44:35;13.29;84.71
65995;HTU21D;52764;51.036;5.852;2023-11-19T19:47:01;13.30;84.44
65995;HTU21D;52764;51.036;5.852;2023-11-19T19:49:27;13.33;84.27
65995;HTU21D;52764;51.036;5.852;2023-11-19T19:51:55;13.38;83.92
65995;HTU21D;52764;51.036;5.852;2023-11-19T19:54:21;13.41;83.59
65995;HTU21D;52764;51.036;5.852;2023-11-19T19:56:48;13.41;83.42
65995;HTU21D;52764;51.036;5.852;2023-11-19T19:59:14;13.38;83.39
65995;HTU21D;52764;51.036;5.852;2023-11-19T20:01:40;13.34;83.35
65995;HTU21D;52764;51.036;5.852;2023-11-19T20:04:06;13.36;83.16
65995;HTU21D;52764;51.036;5.852;2023-11-19T20:06:38;13.30;83.27
65995;HTU21D;52764;51.036;5.852;2023-11-19T20:09:05;13.27;83.36
65995;HTU21D;52764;51.036;5.852;2023-11-19T20:11:32;13.22;83.60
65995;HTU21D;52764;51.036;5.852;2023-11-19T20:14:02;13.18;84.04
65995;HTU21D;52764;51.036;5.852;2023-11-19T20:16:29;13.17;84.32
65995;HTU21D;52764;51.036;5.852;2023-11-19T20:18:55;13.18;84.51
65995;HTU21D;52764;51.036;5.852;2023-11-19T20:21:21;13.16;84.60
65995;HTU21D;52764;51.036;5.852;2023-11-19T20:23:47;13.15;84.68
65995;HTU21D;52764;51.036;5.852;2023-11-19T20:26:13;13.15;84.88
65995;HTU21D;52764;51.036;5.852;2023-11-19T20:28:44;13.12;84.95
65995;HTU21D;52764;51.036;5.852;2023-11-19T20:31:11;13.08;85.06
65995;HTU21D;52764;51.036;5.852;2023-11-19T20:33:37;13.01;85.31
65995;HTU21D;52764;51.036;5.852;2023-11-19T20:36:04;12.99;85.59
65995;HTU21D;52764;51.036;5.852;2023-11-19T20:38:31;12.95;85.86
65995;HTU21D;52764;51.036;5.852;2023-11-19T20:40:57;12.96;86.06
65995;HTU21D;52764;51.036;5.852;2023-11-19T20:43:23;-15.08;86.09
65995;HTU21D;52764;51.036;5.852;2023-11-19T20:45:49;12.93;86.18
65995;HTU21D;52764;51.036;5.852;2023-11-19T20:48:15;12.93;86.32
65995;HTU21D;52764;51.036;5.852;2023-11-19T20:50:41;12.95;86.39
65995;HTU21D;52764;51.036;5.852;2023-11-19T20:53:06;12.95;86.50
65995;HTU21D;52764;51.036;5.852;2023-11-19T20:55:36;13.01;86.32
65995;HTU21D;52764;51.036;5.852;2023-11-19T20:58:04;13.05;86.17
65995;HTU21D;52764;51.036;5.852;2023-11-19T21:00:31;13.10;86.07
65995;HTU21D;52764;51.036;5.852;2023-11-19T21:02:57;13.10;85.98
65995;HTU21D;52764;51.036;5.852;2023-11-19T21:05:23;13.10;85.92
65995;HTU21D;52764;51.036;5.852;2023-11-19T21:07:49;13.07;85.98
65995;HTU21D;52764;51.036;5.852;2023-11-19T21:10:15;13.08;85.97
65995;HTU21D;52764;51.036;5.852;2023-11-19T21:12:41;13.10;85.93
65995;HTU21D;52764;51.036;5.852;2023-11-19T21:15:08;13.09;85.95
65995;HTU21D;52764;51.036;5.852;2023-11-19T21:17:34;13.09;85.90
65995;HTU21D;52764;51.036;5.852;2023-11-19T21:20:00;13.07;85.96
65995;HTU21D;52764;51.036;5.852;2023-11-19T21:22:26;13.05;86.00
65995;HTU21D;52764;51.036;5.852;2023-11-19T21:24:52;13.04;86.05
65995;HTU21D;52764;51.036;5.852;2023-11-19T21:27:18;13.06;85.90
65995;HTU21D;52764;51.036;5.852;2023-11-19T21:29:44;13.07;85.81
65995;HTU21D;52764;51.036;5.852;2023-11-19T21:32:13;13.07;85.77
65995;HTU21D;52764;51.036;5.852;2023-11-19T21:34:38;13.10;85.71
65995;HTU21D;52764;51.036;5.852;2023-11-19T21:37:07;13.10;85.65
65995;HTU21D;52764;51.036;5.852;2023-11-19T21:39:34;13.10;85.57
65995;HTU21D;52764;51.036;5.852;2023-11-19T21:42:00;12.89;85.58
65995;HTU21D;52764;51.036;5.852;2023-11-19T21:44:25;13.06;85.64
65995;HTU21D;52764;51.036;5.852;2023-11-19T21:46:51;13.04;85.86
65995;HTU21D;52764;51.036;5.852;2023-11-19T21:49:17;13.02;86.02
65995;HTU21D;52764;51.036;5.852;2023-11-19T21:51:43;13.04;86.19
65995;HTU21D;52764;51.036;5.852;2023-11-19T21:54:08;13.03;86.35
65995;HTU21D;52764;51.036;5.852;2023-11-19T21:56:35;13.04;86.58
65995;HTU21D;52764;51.036;5.852;2023-11-19T21:59:01;13.03;86.58
65995;HTU21D;52764;51.036;5.852;2023-11-19T22:01:27;13.03;86.75
65995;HTU21D;52764;51.036;5.852;2023-11-19T22:03:54;13.05;86.66
65995;HTU21D;52764;51.036;5.852;2023-11-19T22:06:20;13.04;86.66
65995;HTU21D;52764;51.036;5.852;2023-11-19T22:08:46;13.05;86.50
65995;HTU21D;52764;51.036;5.852;2023-11-19T22:11:12;13.00;86.51
65995;HTU21D;52764;51.036;5.852;2023-11-19T22:13:38;13.03;86.33
65995;HTU21D;52764;51.036;5.852;2023-11-19T22:16:04;13.01;86.18
65995;HTU21D;52764;51.036;5.852;2023-11-19T22:18:30;13.00;86.12
65995;HTU21D;52764;51.036;5.852;2023-11-19T22:20:56;13.00;86.21
65995;HTU21D;52764;51.036;5.852;2023-11-19T22:23:22;13.01;85.96
65995;HTU21D;52764;51.036;5.852;2023-11-19T22:25:47;13.02;85.94
65995;HTU21D;52764;51.036;5.852;2023-11-19T22:28:13;13.02;86.03
65995;HTU21D;52764;51.036;5.852;2023-11-19T22:30:40;13.07;85.65
65995;HTU21D;52764;51.036;5.852;2023-11-19T22:33:06;13.05;85.64
65995;HTU21D;52764;51.036;5.852;2023-11-19T22:35:33;13.07;85.54
65995;HTU21D;52764;51.036;5.852;2023-11-19T22:37:59;13.09;85.42
65995;HTU21D;52764;51.036;5.852;2023-11-19T22:40:25;13.08;85.31
65995;HTU21D;52764;51.036;5.852;2023-11-19T22:42:50;13.09;85.19
65995;HTU21D;52764;51.036;5.852;2023-11-19T22:45:17;13.09;85.13
65995;HTU21D;52764;51.036;5.852;2023-11-19T22:47:43;13.11;84.97
65995;HTU21D;52764;51.036;5.852;2023-11-19T22:50:09;13.15;84.70
65995;HTU21D;52764;51.036;5.852;2023-11-19T22:52:35;13.11;84.58
65995;HTU21D;52764;51.036;5.852;2023-11-19T22:55:02;13.15;84.45
65995;HTU21D;52764;51.036;5.852;2023-11-19T22:57:28;13.16;84.25
65995;HTU21D;52764;51.036;5.852;2023-11-19T22:59:54;13.15;84.15
65995;HTU21D;52764;51.036;5.852;2023-11-19T23:02:20;13.20;83.74
65995;HTU21D;52764;51.036;5.852;2023-11-19T23:04:45;13.21;83.51
65995;HTU21D;52764;51.036;5.852;2023-11-19T23:07:11;13.19;83.39
65995;HTU21D;52764;51.036;5.852;2023-11-19T23:09:37;13.22;83.27
65995;HTU21D;52764;51.036;5.852;2023-11-19T23:12:06;13.25;83.12
65995;HTU21D;52764;51.036;5.852;2023-11-19T23:14:32;13.25;82.85
65995;HTU21D;52764;51.036;5.852;2023-11-19T23:16:58;13.26;81.76
65995;HTU21D;52764;51.036;5.852;2023-11-19T23:19:24;13.27;82.83
65995;HTU21D;52764;51.036;5.852;2023-11-19T23:21:50;13.29;82.74
65995;HTU21D;52764;51.036;5.852;2023-11-19T23:24:15;13.29;82.68
65995;HTU21D;52764;51.036;5.852;2023-11-19T23:26:41;13.31;82.64
65995;HTU21D;52764;51.036;5.852;2023-11-19T23:29:07;13.27;82.62
65995;HTU21D;52764;51.036;5.852;2023-11-19T23:31:34;13.32;82.51
65995;HTU21D;52764;51.036;5.852;2023-11-19T23:34:01;13.31;82.58
65995;HTU21D;52764;51.036;5.852;2023-11-19T23:36:27;13.35;82.50
65995;HTU21D;52764;51.036;5.852;2023-11-19T23:38:53;13.37;82.39
65995;HTU21D;52764;51.036;5.852;2023-11-19T23:41:19;13.38;82.23
65995;HTU21D;52764;51.036;5.852;2023-11-19T23:43:45;13.40;82.23
65995;HTU21D;52764;51.036;5.852;2023-11-19T23:46:13;13.39;82.16
65995;HTU21D;52764;51.036;5.852;2023-11-19T23:48:39;13.40;82.20
65995;HTU21D;52764;51.036;5.852;2023-11-19T23:51:05;13.41;82.05
65995;HTU21D;52764;51.036;5.852;2023-11-19T23:53:31;13.38;82.21
65995;HTU21D;52764;51.036;5.852;2023-11-19T23:55:56;13.38;82.40
65995;HTU21D;52764;51.036;5.852;2023-11-19T23:58:22;13.35;82.53
